sensor_id;sensor_type;location;lat;lon;timestamp;temperature;humidity
71396;DHT22;59888;55.814;37.132;2023-02-08T00:01:24;-3.78;56.20
71396;DHT22;59888;55.814;37.132;2023-02-08T00:03:50;-3.71;55.74
71396;DHT22;59888;55.814;37.132;2023-02-08T00:06:17;-3.72;55.72
71396;DHT22;59888;55.814;37.132;2023-02-08T00:08:43;-3.81;56.15
71396;DHT22;59888;55.814;37.132;2023-02-08T00:11:09;-3.85;56.45
71396;DHT22;59888;55.814;37.132;2023-02-08T00:13:36;-3.85;56.52
71396;DHT22;59888;55.814;37.132;2023-02-08T00:16:02;-3.83;56.10
71396;DHT22;59888;55.814;37.132;2023-02-08T00:18:28;-3.85;56.78
71396;DHT22;59888;55.814;37.132;2023-02-08T00:20:54;-3.81;56.46
71396;DHT22;59888;55.814;37.132;2023-02-08T00:23:22;-3.87;56.74
71396;DHT22;59888;55.814;37.132;2023-02-08T00:28:32;-3.82;56.69
71396;DHT22;59888;55.814;37.132;2023-02-08T00:30:58;-3.85;57.16
71396;DHT22;59888;55.814;37.132;2023-02-08T00:33:24;-3.84;56.97
71396;DHT22;59888;55.814;37.132;2023-02-08T00:35:56;-3.80;56.86
71396;DHT22;59888;55.814;37.132;2023-02-08T00:38:22;-3.87;56.86
71396;DHT22;59888;55.814;37.132;2023-02-08T00:40:48;-3.91;56.99
71396;DHT22;59888;55.814;37.132;2023-02-08T00:43:13;-3.91;56.65
71396;DHT22;59888;55.814;37.132;2023-02-08T00:45:41;-3.93;56.84
71396;DHT22;59888;55.814;37.132;2023-02-08T00:48:06;-3.92;56.78
71396;DHT22;59888;55.814;37.132;2023-02-08T00:50:32;-4.05;57.16
71396;DHT22;59888;55.814;37.132;2023-02-08T00:52:58;-4.11;57.60
71396;DHT22;59888;55.814;37.132;2023-02-08T00:55:24;-4.02;57.17
71396;DHT22;59888;55.814;37.132;2023-02-08T00:57:50;-3.95;57.14
71396;DHT22;59888;55.814;37.132;2023-02-08T01:00:16;-4.04;57.29
71396;DHT22;59888;55.814;37.132;2023-02-08T01:02:42;-4.01;56.71
71396;DHT22;59888;55.814;37.132;2023-02-08T01:05:09;-4.05;56.85
71396;DHT22;59888;55.814;37.132;2023-02-08T01:07:36;-4.10;57.26
71396;DHT22;59888;55.814;37.132;2023-02-08T01:10:04;-4.11;57.01
71396;DHT22;59888;55.814;37.132;2023-02-08T01:12:30;-4.25;57.58
71396;DHT22;59888;55.814;37.132;2023-02-08T01:14:56;-4.19;57.16
71396;DHT22;59888;55.814;37.132;2023-02-08T01:17:22;-4.19;57.22
71396;DHT22;59888;55.814;37.132;2023-02-08T01:19:48;-4.31;58.19
71396;DHT22;59888;55.814;37.132;2023-02-08T01:22:13;-4.28;57.64
71396;DHT22;59888;55.814;37.132;2023-02-08T01:24:39;-4.24;57.56
71396;DHT22;59888;55.814;37.132;2023-02-08T01:27:05;-4.14;57.16
71396;DHT22;59888;55.814;37.132;2023-02-08T01:29:31;-4.08;57.14
71396;DHT22;59888;55.814;37.132;2023-02-08T01:31:58;-4.12;57.14
71396;DHT22;59888;55.814;37.132;2023-02-08T01:37:08;-3.95;56.71
71396;DHT22;59888;55.814;37.132;2023-02-08T01:39:34;-3.85;56.25
71396;DHT22;59888;55.814;37.132;2023-02-08T01:42:00;-3.90;56.04
71396;DHT22;59888;55.814;37.132;2023-02-08T01:47:52;-3.98;56.37
71396;DHT22;59888;55.814;37.132;2023-02-08T01:50:21;-4.00;56.42
71396;DHT22;59888;55.814;37.132;2023-02-08T01:52:48;-4.01;56.48
71396;DHT22;59888;55.814;37.132;2023-02-08T01:55:28;-4.00;56.54
71396;DHT22;59888;55.814;37.132;2023-02-08T01:57:58;-3.97;56.47
71396;DHT22;59888;55.814;37.132;2023-02-08T02:00:26;-3.97;56.26
71396;DHT22;59888;55.814;37.132;2023-02-08T02:02:54;-4.06;56.62
71396;DHT22;59888;55.814;37.132;2023-02-08T02:05:45;-4.06;56.81
71396;DHT22;59888;55.814;37.132;2023-02-08T02:10:56;-4.05;56.84
71396;DHT22;59888;55.814;37.132;2023-02-08T02:13:24;-4.07;57.00
71396;DHT22;59888;55.814;37.132;2023-02-08T02:15:53;-4.05;56.81
71396;DHT22;59888;55.814;37.132;2023-02-08T02:18:31;-3.96;56.86
71396;DHT22;59888;55.814;37.132;2023-02-08T02:30:08;-3.89;56.37
71396;DHT22;59888;55.814;37.132;2023-02-08T02:32:59;-3.85;56.34
71396;DHT22;59888;55.814;37.132;2023-02-08T02:35:50;-3.87;56.31
71396;DHT22;59888;55.814;37.132;2023-02-08T02:41:48;-3.86;56.18
71396;DHT22;59888;55.814;37.132;2023-02-08T02:44:41;-3.82;56.10
71396;DHT22;59888;55.814;37.132;2023-02-08T02:53:00;-3.74;56.21
71396;DHT22;59888;55.814;37.132;2023-02-08T02:55:31;-3.66;56.02
71396;DHT22;59888;55.814;37.132;2023-02-08T02:58:00;-3.65;56.01
71396;DHT22;59888;55.814;37.132;2023-02-08T03:06:06;-3.64;55.97
71396;DHT22;59888;55.814;37.132;2023-02-08T03:08:39;-3.67;56.18
71396;DHT22;59888;55.814;37.132;2023-02-08T03:11:24;-3.63;56.19
71396;DHT22;59888;55.814;37.132;2023-02-08T03:16:30;-3.57;56.35
71396;DHT22;59888;55.814;37.132;2023-02-08T03:21:45;-3.46;56.14
71396;DHT22;59888;55.814;37.132;2023-02-08T03:24:28;-3.41;56.11
71396;DHT22;59888;55.814;37.132;2023-02-08T03:27:29;-3.36;56.04
71396;DHT22;59888;55.814;37.132;2023-02-08T03:30:10;-3.46;56.10
71396;DHT22;59888;55.814;37.132;2023-02-08T03:32:51;-3.47;56.15
71396;DHT22;59888;55.814;37.132;2023-02-08T03:35:23;-3.46;56.23
71396;DHT22;59888;55.814;37.132;2023-02-08T03:38:12;-3.43;56.39
71396;DHT22;59888;55.814;37.132;2023-02-08T03:40:52;-3.45;56.29
71396;DHT22;59888;55.814;37.132;2023-02-08T03:43:26;-3.46;56.51
71396;DHT22;59888;55.814;37.132;2023-02-08T03:49:04;-3.39;56.64
71396;DHT22;59888;55.814;37.132;2023-02-08T03:51:33;-3.25;56.55
71396;DHT22;59888;55.814;37.132;2023-02-08T03:54:01;-3.22;56.49
71396;DHT22;59888;55.814;37.132;2023-02-08T03:56:53;-3.27;56.63
71396;DHT22;59888;55.814;37.132;2023-02-08T03:59:26;-3.22;56.58
71396;DHT22;59888;55.814;37.132;2023-02-08T04:01:58;-3.28;56.57
71396;DHT22;59888;55.814;37.132;2023-02-08T04:04:26;-3.35;56.92
71396;DHT22;59888;55.814;37.132;2023-02-08T04:06:53;-3.37;56.94
71396;DHT22;59888;55.814;37.132;2023-02-08T04:09:19;-3.35;56.93
71396;DHT22;59888;55.814;37.132;2023-02-08T04:11:45;-3.32;56.77
71396;DHT22;59888;55.814;37.132;2023-02-08T04:14:11;-3.35;56.97
71396;DHT22;59888;55.814;37.132;2023-02-08T04:16:37;-3.30;56.77
71396;DHT22;59888;55.814;37.132;2023-02-08T04:19:03;-3.26;56.81
71396;DHT22;59888;55.814;37.132;2023-02-08T04:21:29;-3.18;56.66
71396;DHT22;59888;55.814;37.132;2023-02-08T04:23:54;-3.12;56.52
71396;DHT22;59888;55.814;37.132;2023-02-08T04:26:20;-3.16;56.39
71396;DHT22;59888;55.814;37.132;2023-02-08T04:28:46;-3.20;56.60
71396;DHT22;59888;55.814;37.132;2023-02-08T04:31:12;-3.21;56.66
71396;DHT22;59888;55.814;37.132;2023-02-08T04:33:38;-3.19;56.64
71396;DHT22;59888;55.814;37.132;2023-02-08T04:36:04;-3.12;56.64
71396;DHT22;59888;55.814;37.132;2023-02-08T04:38:30;-3.09;56.61
71396;DHT22;59888;55.814;37.132;2023-02-08T04:40:56;-3.04;56.68
71396;DHT22;59888;55.814;37.132;2023-02-08T04:43:40;-2.98;56.36
71396;DHT22;59888;55.814;37.132;2023-02-08T04:46:24;-3.03;56.52
71396;DHT22;59888;55.814;37.132;2023-02-08T04:48:50;-3.10;56.60
71396;DHT22;59888;55.814;37.132;2023-02-08T04:51:16;-3.08;56.63
71396;DHT22;59888;55.814;37.132;2023-02-08T04:54:01;-3.09;56.69
71396;DHT22;59888;55.814;37.132;2023-02-08T04:56:27;-3.08;56.74
71396;DHT22;59888;55.814;37.132;2023-02-08T04:58:53;-3.08;56.83
71396;DHT22;59888;55.814;37.132;2023-02-08T05:01:19;-3.06;56.83
71396;DHT22;59888;55.814;37.132;2023-02-08T05:03:45;-3.02;56.75
71396;DHT22;59888;55.814;37.132;2023-02-08T05:06:10;-3.00;56.77
71396;DHT22;59888;55.814;37.132;2023-02-08T05:08:36;-3.00;56.71
71396;DHT22;59888;55.814;37.132;2023-02-08T05:11:02;-3.03;56.85
71396;DHT22;59888;55.814;37.132;2023-02-08T05:13:28;-2.96;57.07
71396;DHT22;59888;55.814;37.132;2023-02-08T05:15:54;-2.95;56.67
71396;DHT22;59888;55.814;37.132;2023-02-08T05:18:19;-2.95;56.68
71396;DHT22;59888;55.814;37.132;2023-02-08T05:20:58;-3.00;56.61
71396;DHT22;59888;55.814;37.132;2023-02-08T05:23:25;-3.01;56.80
71396;DHT22;59888;55.814;37.132;2023-02-08T05:25:51;-3.01;56.68
71396;DHT22;59888;55.814;37.132;2023-02-08T05:28:18;-3.05;56.77
71396;DHT22;59888;55.814;37.132;2023-02-08T05:30:45;-3.09;56.87
71396;DHT22;59888;55.814;37.132;2023-02-08T05:33:11;-3.06;56.88
71396;DHT22;59888;55.814;37.132;2023-02-08T05:35:37;-3.06;56.77
71396;DHT22;59888;55.814;37.132;2023-02-08T05:38:03;-3.03;56.68
71396;DHT22;59888;55.814;37.132;2023-02-08T05:40:30;-3.15;57.32
71396;DHT22;59888;55.814;37.132;2023-02-08T05:43:14;-3.16;57.45
71396;DHT22;59888;55.814;37.132;2023-02-08T05:45:40;-3.08;56.87
71396;DHT22;59888;55.814;37.132;2023-02-08T05:48:06;-3.12;57.33
71396;DHT22;59888;55.814;37.132;2023-02-08T05:50:32;-3.09;57.03
71396;DHT22;59888;55.814;37.132;2023-02-08T05:52:58;-3.08;57.02
71396;DHT22;59888;55.814;37.132;2023-02-08T05:55:23;-3.13;57.22
71396;DHT22;59888;55.814;37.132;2023-02-08T05:57:51;-3.08;57.10
71396;DHT22;59888;55.814;37.132;2023-02-08T06:00:17;-3.02;57.26
71396;DHT22;59888;55.814;37.132;2023-02-08T06:02:44;-3.01;56.98
71396;DHT22;59888;55.814;37.132;2023-02-08T06:05:10;-2.97;57.13
71396;DHT22;59888;55.814;37.132;2023-02-08T06:07:36;-2.93;56.99
71396;DHT22;59888;55.814;37.132;2023-02-08T06:10:02;-3.00;57.19
71396;DHT22;59888;55.814;37.132;2023-02-08T06:12:29;-2.98;57.13
71396;DHT22;59888;55.814;37.132;2023-02-08T06:14:54;-3.02;57.28
71396;DHT22;59888;55.814;37.132;2023-02-08T06:17:20;-3.03;57.15
71396;DHT22;59888;55.814;37.132;2023-02-08T06:19:46;-3.00;57.32
71396;DHT22;59888;55.814;37.132;2023-02-08T06:22:12;-3.00;57.45
71396;DHT22;59888;55.814;37.132;2023-02-08T06:24:56;-3.02;57.55
71396;DHT22;59888;55.814;37.132;2023-02-08T06:27:22;-2.98;57.16
71396;DHT22;59888;55.814;37.132;2023-02-08T06:29:48;-3.00;57.34
71396;DHT22;59888;55.814;37.132;2023-02-08T06:32:14;-2.95;57.21
71396;DHT22;59888;55.814;37.132;2023-02-08T06:34:40;-2.95;57.26
71396;DHT22;59888;55.814;37.132;2023-02-08T06:37:06;-2.91;57.20
71396;DHT22;59888;55.814;37.132;2023-02-08T06:39:32;-2.86;57.11
71396;DHT22;59888;55.814;37.132;2023-02-08T06:41:58;-2.83;56.87
71396;DHT22;59888;55.814;37.132;2023-02-08T06:44:42;-2.86;57.22
71396;DHT22;59888;55.814;37.132;2023-02-08T06:47:08;-2.86;57.39
71396;DHT22;59888;55.814;37.132;2023-02-08T06:52:18;-2.84;57.26
71396;DHT22;59888;55.814;37.132;2023-02-08T06:54:45;-2.79;56.90
71396;DHT22;59888;55.814;37.132;2023-02-08T06:57:10;-2.82;57.10
71396;DHT22;59888;55.814;37.132;2023-02-08T06:59:40;-2.84;57.32
71396;DHT22;59888;55.814;37.132;2023-02-08T07:02:14;-2.78;57.16
71396;DHT22;59888;55.814;37.132;2023-02-08T07:04:59;-2.76;56.95
71396;DHT22;59888;55.814;37.132;2023-02-08T07:07:26;-2.75;57.07
71396;DHT22;59888;55.814;37.132;2023-02-08T07:09:52;-2.69;57.00
71396;DHT22;59888;55.814;37.132;2023-02-08T07:12:36;-2.64;56.70
71396;DHT22;59888;55.814;37.132;2023-02-08T07:15:03;-2.68;57.13
71396;DHT22;59888;55.814;37.132;2023-02-08T07:17:29;-2.68;57.13
71396;DHT22;59888;55.814;37.132;2023-02-08T07:19:55;-2.60;57.06
71396;DHT22;59888;55.814;37.132;2023-02-08T07:22:21;-2.56;56.89
71396;DHT22;59888;55.814;37.132;2023-02-08T07:24:47;-2.48;56.77
71396;DHT22;59888;55.814;37.132;2023-02-08T07:27:13;-2.51;56.58
71396;DHT22;59888;55.814;37.132;2023-02-08T07:29:39;-2.63;56.87
71396;DHT22;59888;55.814;37.132;2023-02-08T07:32:06;-2.67;56.88
71396;DHT22;59888;55.814;37.132;2023-02-08T07:34:35;-2.71;57.00
71396;DHT22;59888;55.814;37.132;2023-02-08T07:37:02;-2.71;56.93
71396;DHT22;59888;55.814;37.132;2023-02-08T07:39:27;-2.69;57.15
71396;DHT22;59888;55.814;37.132;2023-02-08T07:41:56;-2.64;57.27
71396;DHT22;59888;55.814;37.132;2023-02-08T07:44:22;-2.54;56.97
71396;DHT22;59888;55.814;37.132;2023-02-08T07:46:48;-2.50;56.89
71396;DHT22;59888;55.814;37.132;2023-02-08T07:49:14;-2.45;56.71
71396;DHT22;59888;55.814;37.132;2023-02-08T07:51:40;-2.50;56.98
71396;DHT22;59888;55.814;37.132;2023-02-08T07:54:06;-2.43;56.90
71396;DHT22;59888;55.814;37.132;2023-02-08T07:56:32;-2.38;56.79
71396;DHT22;59888;55.814;37.132;2023-02-08T07:58:58;-2.42;57.20
71396;DHT22;59888;55.814;37.132;2023-02-08T08:01:24;-2.32;57.03
71396;DHT22;59888;55.814;37.132;2023-02-08T08:03:50;-2.23;56.93
71396;DHT22;59888;55.814;37.132;2023-02-08T08:06:18;-2.12;56.81
71396;DHT22;59888;55.814;37.132;2023-02-08T08:08:44;-2.08;56.43
71396;DHT22;59888;55.814;37.132;2023-02-08T08:11:13;-2.08;56.38
71396;DHT22;59888;55.814;37.132;2023-02-08T08:13:39;-2.05;56.43
71396;DHT22;59888;55.814;37.132;2023-02-08T08:16:05;-2.08;56.39
71396;DHT22;59888;55.814;37.132;2023-02-08T08:18:49;-2.07;56.39
71396;DHT22;59888;55.814;37.132;2023-02-08T08:21:20;-2.04;56.42
71396;DHT22;59888;55.814;37.132;2023-02-08T08:23:46;-2.01;56.26
71396;DHT22;59888;55.814;37.132;2023-02-08T08:26:18;-2.12;56.42
71396;DHT22;59888;55.814;37.132;2023-02-08T08:28:44;-2.05;56.42
71396;DHT22;59888;55.814;37.132;2023-02-08T08:31:17;-2.02;56.41
71396;DHT22;59888;55.814;37.132;2023-02-08T08:33:43;-2.02;56.29
71396;DHT22;59888;55.814;37.132;2023-02-08T08:36:09;-2.00;56.45
71396;DHT22;59888;55.814;37.132;2023-02-08T08:38:53;-1.76;56.31
71396;DHT22;59888;55.814;37.132;2023-02-08T08:41:19;-1.56;56.05
71396;DHT22;59888;55.814;37.132;2023-02-08T08:43:47;-1.57;55.68
71396;DHT22;59888;55.814;37.132;2023-02-08T08:46:13;-1.49;55.78
71396;DHT22;59888;55.814;37.132;2023-02-08T08:48:41;-1.49;55.70
71396;DHT22;59888;55.814;37.132;2023-02-08T08:51:07;-1.49;55.75
71396;DHT22;59888;55.814;37.132;2023-02-08T08:53:33;-1.39;55.75
71396;DHT22;59888;55.814;37.132;2023-02-08T08:55:59;-1.35;55.59
71396;DHT22;59888;55.814;37.132;2023-02-08T08:58:25;-1.41;55.49
71396;DHT22;59888;55.814;37.132;2023-02-08T09:00:51;-1.48;55.67
71396;DHT22;59888;55.814;37.132;2023-02-08T09:03:18;-1.46;55.55
71396;DHT22;59888;55.814;37.132;2023-02-08T09:05:45;-1.49;55.61
71396;DHT22;59888;55.814;37.132;2023-02-08T09:08:11;-1.52;55.78
71396;DHT22;59888;55.814;37.132;2023-02-08T09:10:38;-1.67;56.13
71396;DHT22;59888;55.814;37.132;2023-02-08T09:13:04;-1.56;56.19
71396;DHT22;59888;55.814;37.132;2023-02-08T09:15:30;-1.56;56.24
71396;DHT22;59888;55.814;37.132;2023-02-08T09:17:55;-1.63;56.50
71396;DHT22;59888;55.814;37.132;2023-02-08T09:20:21;-1.60;56.41
71396;DHT22;59888;55.814;37.132;2023-02-08T09:22:48;-1.61;56.33
71396;DHT22;59888;55.814;37.132;2023-02-08T09:27:59;-1.57;56.65
71396;DHT22;59888;55.814;37.132;2023-02-08T09:30:24;-1.61;56.73
71396;DHT22;59888;55.814;37.132;2023-02-08T09:32:50;-1.54;56.84
71396;DHT22;59888;55.814;37.132;2023-02-08T09:35:34;-1.48;56.59
71396;DHT22;59888;55.814;37.132;2023-02-08T09:38:00;-1.42;56.48
71396;DHT22;59888;55.814;37.132;2023-02-08T09:40:44;-1.27;56.21
71396;DHT22;59888;55.814;37.132;2023-02-08T09:46:16;-1.18;56.07
71396;DHT22;59888;55.814;37.132;2023-02-08T09:48:44;-0.98;55.82
71396;DHT22;59888;55.814;37.132;2023-02-08T09:54:38;-0.50;55.19
71396;DHT22;59888;55.814;37.132;2023-02-08T09:57:10;-0.37;54.60
71396;DHT22;59888;55.814;37.132;2023-02-08T09:59:38;-0.31;54.44
71396;DHT22;59888;55.814;37.132;2023-02-08T10:02:20;-0.32;53.65
71396;DHT22;59888;55.814;37.132;2023-02-08T10:07:56;-0.07;53.97
71396;DHT22;59888;55.814;37.132;2023-02-08T10:10:53;-0.08;53.34
71396;DHT22;59888;55.814;37.132;2023-02-08T10:13:44;0.10;53.23
71396;DHT22;59888;55.814;37.132;2023-02-08T10:24:40;0.18;52.94
71396;DHT22;59888;55.814;37.132;2023-02-08T10:35:13;-0.24;53.90
71396;DHT22;59888;55.814;37.132;2023-02-08T10:37:42;-0.24;54.33
71396;DHT22;59888;55.814;37.132;2023-02-08T10:40:25;-0.23;54.02
71396;DHT22;59888;55.814;37.132;2023-02-08T10:43:08;-0.26;54.35
71396;DHT22;59888;55.814;37.132;2023-02-08T10:45:50;-0.20;54.57
71396;DHT22;59888;55.814;37.132;2023-02-08T10:48:28;-0.12;54.54
71396;DHT22;59888;55.814;37.132;2023-02-08T10:50:56;0.10;54.44
71396;DHT22;59888;55.814;37.132;2023-02-08T10:53:22;0.35;53.98
71396;DHT22;59888;55.814;37.132;2023-02-08T10:58:57;0.88;53.41
71396;DHT22;59888;55.814;37.132;2023-02-08T11:01:24;0.84;51.61
71396;DHT22;59888;55.814;37.132;2023-02-08T11:04:09;0.90;51.87
71396;DHT22;59888;55.814;37.132;2023-02-08T11:06:36;0.73;51.55
71396;DHT22;59888;55.814;37.132;2023-02-08T11:09:03;0.65;52.30
71396;DHT22;59888;55.814;37.132;2023-02-08T11:11:37;0.51;52.40
71396;DHT22;59888;55.814;37.132;2023-02-08T11:14:07;0.60;52.39
71396;DHT22;59888;55.814;37.132;2023-02-08T11:16:33;0.69;53.14
71396;DHT22;59888;55.814;37.132;2023-02-08T11:19:01;0.88;52.94
71396;DHT22;59888;55.814;37.132;2023-02-08T11:21:36;0.90;52.30
71396;DHT22;59888;55.814;37.132;2023-02-08T11:24:28;0.84;52.32
71396;DHT22;59888;55.814;37.132;2023-02-08T11:26:55;0.84;52.65
71396;DHT22;59888;55.814;37.132;2023-02-08T11:29:27;0.89;52.54
71396;DHT22;59888;55.814;37.132;2023-02-08T11:34:31;0.92;51.97
71396;DHT22;59888;55.814;37.132;2023-02-08T11:39:44;0.63;52.41
71396;DHT22;59888;55.814;37.132;2023-02-08T11:42:26;0.61;52.36
71396;DHT22;59888;55.814;37.132;2023-02-08T11:47:39;0.63;52.49
71396;DHT22;59888;55.814;37.132;2023-02-08T11:50:06;0.63;52.84
71396;DHT22;59888;55.814;37.132;2023-02-08T11:52:35;0.66;52.78
71396;DHT22;59888;55.814;37.132;2023-02-08T11:57:56;0.63;52.57
71396;DHT22;59888;55.814;37.132;2023-02-08T12:00:25;0.68;52.65
71396;DHT22;59888;55.814;37.132;2023-02-08T12:05:52;0.72;52.67
71396;DHT22;59888;55.814;37.132;2023-02-08T12:08:33;0.61;52.22
71396;DHT22;59888;55.814;37.132;2023-02-08T12:11:43;0.60;52.68
71396;DHT22;59888;55.814;37.132;2023-02-08T12:37:06;0.32;53.41
71396;DHT22;59888;55.814;37.132;2023-02-08T12:48:16;0.23;53.98
71396;DHT22;59888;55.814;37.132;2023-02-08T12:50:59;0.28;53.67
71396;DHT22;59888;55.814;37.132;2023-02-08T12:53:42;0.30;53.82
71396;DHT22;59888;55.814;37.132;2023-02-08T12:58:59;0.25;53.75
71396;DHT22;59888;55.814;37.132;2023-02-08T13:04:35;0.17;54.07
71396;DHT22;59888;55.814;37.132;2023-02-08T13:07:10;0.23;54.08
71396;DHT22;59888;55.814;37.132;2023-02-08T13:12:23;0.17;54.16
71396;DHT22;59888;55.814;37.132;2023-02-08T13:15:39;0.24;54.12
71396;DHT22;59888;55.814;37.132;2023-02-08T13:18:00;0.25;53.98
71396;DHT22;59888;55.814;37.132;2023-02-08T13:20:51;0.29;54.01
71396;DHT22;59888;55.814;37.132;2023-02-08T13:23:20;0.24;53.97
71396;DHT22;59888;55.814;37.132;2023-02-08T13:29:02;0.18;54.07
71396;DHT22;59888;55.814;37.132;2023-02-08T13:31:31;0.15;54.30
71396;DHT22;59888;55.814;37.132;2023-02-08T13:34:04;0.17;54.24
71396;DHT22;59888;55.814;37.132;2023-02-08T13:36:35;0.16;54.28
71396;DHT22;59888;55.814;37.132;2023-02-08T13:39:04;0.17;54.45
71396;DHT22;59888;55.814;37.132;2023-02-08T13:41:32;0.13;54.71
71396;DHT22;59888;55.814;37.132;2023-02-08T13:44:18;0.08;54.91
71396;DHT22;59888;55.814;37.132;2023-02-08T13:46:47;0.14;54.80
71396;DHT22;59888;55.814;37.132;2023-02-08T13:52:11;0.20;54.83
71396;DHT22;59888;55.814;37.132;2023-02-08T13:57:55;0.17;54.79
71396;DHT22;59888;55.814;37.132;2023-02-08T14:00:27;0.20;54.84
71396;DHT22;59888;55.814;37.132;2023-02-08T14:03:21;0.16;54.81
71396;DHT22;59888;55.814;37.132;2023-02-08T14:05:53;0.12;54.89
71396;DHT22;59888;55.814;37.132;2023-02-08T14:11:11;0.06;55.16
71396;DHT22;59888;55.814;37.132;2023-02-08T14:24:47;-0.03;55.49
71396;DHT22;59888;55.814;37.132;2023-02-08T14:30:06;-0.13;55.92
71396;DHT22;59888;55.814;37.132;2023-02-08T14:32:37;-0.19;56.28
71396;DHT22;59888;55.814;37.132;2023-02-08T14:37:36;-0.24;56.38
71396;DHT22;59888;55.814;37.132;2023-02-08T14:45:32;-0.37;56.42
71396;DHT22;59888;55.814;37.132;2023-02-08T14:48:36;-0.41;56.81
71396;DHT22;59888;55.814;37.132;2023-02-08T14:51:26;-0.40;56.72
71396;DHT22;59888;55.814;37.132;2023-02-08T14:53:59;-0.41;56.84
71396;DHT22;59888;55.814;37.132;2023-02-08T14:56:46;-0.39;57.01
71396;DHT22;59888;55.814;37.132;2023-02-08T14:59:17;-0.44;57.14
71396;DHT22;59888;55.814;37.132;2023-02-08T15:01:59;-0.47;57.38
71396;DHT22;59888;55.814;37.132;2023-02-08T15:04:26;-0.45;57.41
71396;DHT22;59888;55.814;37.132;2023-02-08T15:09:41;-0.40;57.35
71396;DHT22;59888;55.814;37.132;2023-02-08T15:12:21;-0.35;57.23
71396;DHT22;59888;55.814;37.132;2023-02-08T15:14:49;-0.41;57.37
71396;DHT22;59888;55.814;37.132;2023-02-08T15:17:33;-0.42;57.44
71396;DHT22;59888;55.814;37.132;2023-02-08T15:22:44;-0.38;57.50
71396;DHT22;59888;55.814;37.132;2023-02-08T15:25:23;-0.31;57.19
71396;DHT22;59888;55.814;37.132;2023-02-08T15:27:53;-0.29;57.02
71396;DHT22;59888;55.814;37.132;2023-02-08T15:30:32;-0.36;57.48
71396;DHT22;59888;55.814;37.132;2023-02-08T15:33:00;-0.35;57.48
71396;DHT22;59888;55.814;37.132;2023-02-08T15:35:27;-0.31;57.17
71396;DHT22;59888;55.814;37.132;2023-02-08T15:37:56;-0.31;57.44
71396;DHT22;59888;55.814;37.132;2023-02-08T15:40:27;-0.30;57.13
71396;DHT22;59888;55.814;37.132;2023-02-08T15:43:13;-0.35;57.37
71396;DHT22;59888;55.814;37.132;2023-02-08T15:45:39;-0.42;57.79
71396;DHT22;59888;55.814;37.132;2023-02-08T15:48:06;-0.44;57.55
71396;DHT22;59888;55.814;37.132;2023-02-08T15:50:32;-0.41;57.81
71396;DHT22;59888;55.814;37.132;2023-02-08T15:53:00;-0.41;57.72
71396;DHT22;59888;55.814;37.132;2023-02-08T15:55:30;-0.35;57.48
71396;DHT22;59888;55.814;37.132;2023-02-08T15:58:00;-0.32;57.39
71396;DHT22;59888;55.814;37.132;2023-02-08T16:00:30;-0.37;57.88
71396;DHT22;59888;55.814;37.132;2023-02-08T16:03:05;-0.41;57.91
71396;DHT22;59888;55.814;37.132;2023-02-08T16:05:34;-0.40;58.25
71396;DHT22;59888;55.814;37.132;2023-02-08T16:08:01;-0.38;57.96
71396;DHT22;59888;55.814;37.132;2023-02-08T16:10:34;-0.35;57.69
71396;DHT22;59888;55.814;37.132;2023-02-08T16:13:06;-0.38;58.22
71396;DHT22;59888;55.814;37.132;2023-02-08T16:15:42;-0.45;58.22
71396;DHT22;59888;55.814;37.132;2023-02-08T16:21:27;-0.44;58.33
71396;DHT22;59888;55.814;37.132;2023-02-08T16:23:53;-0.47;58.45
71396;DHT22;59888;55.814;37.132;2023-02-08T16:26:23;-0.45;58.45
71396;DHT22;59888;55.814;37.132;2023-02-08T16:29:36;-0.43;58.62
71396;DHT22;59888;55.814;37.132;2023-02-08T16:31:44;-0.41;58.25
71396;DHT22;59888;55.814;37.132;2023-02-08T16:34:18;-0.39;58.18
71396;DHT22;59888;55.814;37.132;2023-02-08T16:36:48;-0.35;58.11
71396;DHT22;59888;55.814;37.132;2023-02-08T16:42:17;-0.37;58.09
71396;DHT22;59888;55.814;37.132;2023-02-08T16:50:01;-0.38;58.66
71396;DHT22;59888;55.814;37.132;2023-02-08T16:52:29;-0.43;58.51
71396;DHT22;59888;55.814;37.132;2023-02-08T16:54:55;-0.42;58.47
71396;DHT22;59888;55.814;37.132;2023-02-08T16:57:22;-0.43;58.72
71396;DHT22;59888;55.814;37.132;2023-02-08T16:59:48;-0.37;58.41
71396;DHT22;59888;55.814;37.132;2023-02-08T17:02:14;-0.31;58.23
71396;DHT22;59888;55.814;37.132;2023-02-08T17:04:39;-0.27;58.53
71396;DHT22;59888;55.814;37.132;2023-02-08T17:07:11;-0.26;58.35
71396;DHT22;59888;55.814;37.132;2023-02-08T17:12:25;-0.35;58.58
71396;DHT22;59888;55.814;37.132;2023-02-08T17:14:51;-0.39;59.04
71396;DHT22;59888;55.814;37.132;2023-02-08T17:17:17;-0.34;58.92
71396;DHT22;59888;55.814;37.132;2023-02-08T17:19:47;-0.29;58.69
71396;DHT22;59888;55.814;37.132;2023-02-08T17:22:13;-0.29;58.54
71396;DHT22;59888;55.814;37.132;2023-02-08T17:24:39;-0.32;58.70
71396;DHT22;59888;55.814;37.132;2023-02-08T17:27:11;-0.35;58.74
71396;DHT22;59888;55.814;37.132;2023-02-08T17:29:38;-0.38;58.96
71396;DHT22;59888;55.814;37.132;2023-02-08T17:32:04;-0.40;58.95
71396;DHT22;59888;55.814;37.132;2023-02-08T17:34:30;-0.38;58.67
71396;DHT22;59888;55.814;37.132;2023-02-08T17:39:41;-0.38;59.10
71396;DHT22;59888;55.814;37.132;2023-02-08T17:42:25;-0.41;59.25
71396;DHT22;59888;55.814;37.132;2023-02-08T17:44:52;-0.47;59.32
71396;DHT22;59888;55.814;37.132;2023-02-08T17:47:18;-0.44;59.42
71396;DHT22;59888;55.814;37.132;2023-02-08T17:49:44;-0.39;59.16
71396;DHT22;59888;55.814;37.132;2023-02-08T17:54:54;-0.38;59.44
71396;DHT22;59888;55.814;37.132;2023-02-08T17:57:20;-0.34;59.63
71396;DHT22;59888;55.814;37.132;2023-02-08T17:59:48;-0.29;59.18
71396;DHT22;59888;55.814;37.132;2023-02-08T18:02:14;-0.28;59.39
71396;DHT22;59888;55.814;37.132;2023-02-08T18:04:40;-0.27;59.46
71396;DHT22;59888;55.814;37.132;2023-02-08T18:07:05;-0.30;59.42
71396;DHT22;59888;55.814;37.132;2023-02-08T18:09:31;-0.26;59.26
71396;DHT22;59888;55.814;37.132;2023-02-08T18:12:00;-0.26;59.37
71396;DHT22;59888;55.814;37.132;2023-02-08T18:14:25;-0.25;59.57
71396;DHT22;59888;55.814;37.132;2023-02-08T18:16:51;-0.23;59.37
71396;DHT22;59888;55.814;37.132;2023-02-08T18:19:17;-0.22;59.48
71396;DHT22;59888;55.814;37.132;2023-02-08T18:21:44;-0.21;59.21
71396;DHT22;59888;55.814;37.132;2023-02-08T18:24:10;-0.25;59.09
71396;DHT22;59888;55.814;37.132;2023-02-08T18:26:36;-0.24;59.92
71396;DHT22;59888;55.814;37.132;2023-02-08T18:29:02;-0.28;60.16
71396;DHT22;59888;55.814;37.132;2023-02-08T18:31:29;-0.28;59.80
71396;DHT22;59888;55.814;37.132;2023-02-08T18:33:55;-0.27;59.61
71396;DHT22;59888;55.814;37.132;2023-02-08T18:36:40;-0.26;59.72
71396;DHT22;59888;55.814;37.132;2023-02-08T18:39:07;-0.26;59.85
71396;DHT22;59888;55.814;37.132;2023-02-08T18:41:33;-0.21;59.82
71396;DHT22;59888;55.814;37.132;2023-02-08T18:44:17;-0.21;59.29
71396;DHT22;59888;55.814;37.132;2023-02-08T18:46:44;-0.20;59.95
71396;DHT22;59888;55.814;37.132;2023-02-08T18:49:13;-0.22;59.64